sensor_id;sensor_type;location;lat;lon;timestamp;pressure;altitude;pressure_sealevel;temperature;humidity
64521;BME280;50896;46.714;17.322;2024-01-06T00:01:15;99380.13;;;5.58;100.00
64521;BME280;50896;46.714;17.322;2024-01-06T00:03:42;99389.06;;;5.57;100.00
64521;BME280;50896;46.714;17.322;2024-01-06T00:06:16;99382.13;;;5.56;100.00
64521;BME280;50896;46.714;17.322;2024-01-06T00:08:43;99377.16;;;5.53;100.00
64521;BME280;50896;46.714;17.322;2024-01-06T00:11:10;99385.06;;;5.53;100.00
64521;BME280;50896;46.714;17.322;2024-01-06T00:13:37;99378.13;;;5.52;100.00
64521;BME280;50896;46.714;17.322;2024-01-06T00:16:04;99384.38;;;5.51;100.00
64521;BME280;50896;46.714;17.322;2024-01-06T00:18:30;99382.13;;;5.56;100.00
64521;BME280;50896;46.714;17.322;2024-01-06T00:20:57;99370.13;;;5.61;100.00
64521;BME280;50896;46.714;17.322;2024-01-06T00:23:24;99374.56;;;5.61;100.00
64521;BME280;50896;46.714;17.322;2024-01-06T00:25:51;99381.16;;;5.57;100.00
64521;BME280;50896;46.714;17.322;2024-01-06T00:28:18;99383.78;;;5.57;100.00
64521;BME280;50896;46.714;17.322;2024-01-06T00:30:45;99385.94;;;5.61;100.00
64521;BME280;50896;46.714;17.322;2024-01-06T00:33:12;99366.47;;;5.54;100.00
64521;BME280;50896;46.714;17.322;2024-01-06T00:35:40;99368.94;;;5.56;100.00
64521;BME280;50896;46.714;17.322;2024-01-06T00:38:07;99367.66;;;5.60;100.00
64521;BME280;50896;46.714;17.322;2024-01-06T00:40:33;99357.91;;;5.60;100.00
64521;BME280;50896;46.714;17.322;2024-01-06T00:43:00;99354.97;;;5.63;100.00
64521;BME280;50896;46.714;17.322;2024-01-06T00:45:27;99364.00;;;5.61;100.00
64521;BME280;50896;46.714;17.322;2024-01-06T00:47:54;99365.31;;;5.57;100.00
64521;BME280;50896;46.714;17.322;2024-01-06T00:50:21;99367.81;;;5.58;100.00
64521;BME280;50896;46.714;17.322;2024-01-06T00:52:48;99363.81;;;5.54;100.00
64521;BME280;50896;46.714;17.322;2024-01-06T00:55:15;99366.13;;;5.57;100.00
64521;BME280;50896;46.714;17.322;2024-01-06T00:57:41;99372.22;;;5.58;100.00
64521;BME280;50896;46.714;17.322;2024-01-06T01:00:09;99375.25;;;5.63;100.00
64521;BME280;50896;46.714;17.322;2024-01-06T01:02:36;99366.03;;;5.67;100.00
64521;BME280;50896;46.714;17.322;2024-01-06T01:05:06;99376.22;;;5.62;100.00
64521;BME280;50896;46.714;17.322;2024-01-06T01:07:36;99379.00;;;5.60;100.00
64521;BME280;50896;46.714;17.322;2024-01-06T01:10:03;99372.06;;;5.59;100.00
64521;BME280;50896;46.714;17.322;2024-01-06T01:12:31;99374.72;;;5.59;100.00
64521;BME280;50896;46.714;17.322;2024-01-06T01:14:58;99371.63;;;5.64;100.00
64521;BME280;50896;46.714;17.322;2024-01-06T01:17:25;99355.13;;;5.62;100.00
64521;BME280;50896;46.714;17.322;2024-01-06T01:19:52;99360.38;;;5.62;100.00
64521;BME280;50896;46.714;17.322;2024-01-06T01:22:19;99357.91;;;5.60;100.00
64521;BME280;50896;46.714;17.322;2024-01-06T01:24:46;99361.84;;;5.56;100.00
64521;BME280;50896;46.714;17.322;2024-01-06T01:27:13;99357.19;;;5.50;100.00
64521;BME280;50896;46.714;17.322;2024-01-06T01:29:40;99351.25;;;5.48;100.00
64521;BME280;50896;46.714;17.322;2024-01-06T01:32:06;99338.59;;;5.52;100.00
64521;BME280;50896;46.714;17.322;2024-01-06T01:34:34;99334.44;;;5.49;100.00
64521;BME280;50896;46.714;17.322;2024-01-06T01:37:01;99341.72;;;5.47;100.00
64521;BME280;50896;46.714;17.322;2024-01-06T01:39:28;99324.81;;;5.40;100.00
64521;BME280;50896;46.714;17.322;2024-01-06T01:41:55;99327.13;;;5.35;100.00
64521;BME280;50896;46.714;17.322;2024-01-06T01:44:22;99341.81;;;5.37;100.00
64521;BME280;50896;46.714;17.322;2024-01-06T01:46:49;99334.25;;;5.42;100.00
64521;BME280;50896;46.714;17.322;2024-01-06T01:49:16;99333.22;;;5.35;100.00
64521;BME280;50896;46.714;17.322;2024-01-06T01:51:43;99329.28;;;5.39;100.00
64521;BME280;50896;46.714;17.322;2024-01-06T01:54:11;99320.13;;;5.25;100.00
64521;BME280;50896;46.714;17.322;2024-01-06T01:56:39;99327.72;;;5.28;100.00
64521;BME280;50896;46.714;17.322;2024-01-06T01:59:12;99324.28;;;5.28;100.00
64521;BME280;50896;46.714;17.322;2024-01-06T02:01:40;99323.59;;;5.26;100.00
64521;BME280;50896;46.714;17.322;2024-01-06T02:04:08;99316.69;;;5.25;100.00
64521;BME280;50896;46.714;17.322;2024-01-06T02:06:35;99311.84;;;5.20;100.00
64521;BME280;50896;46.714;17.322;2024-01-06T02:09:02;99319.91;;;5.19;100.00
64521;BME280;50896;46.714;17.322;2024-01-06T02:11:29;99310.34;;;5.18;100.00
64521;BME280;50896;46.714;17.322;2024-01-06T02:13:56;99308.88;;;5.15;100.00
64521;BME280;50896;46.714;17.322;2024-01-06T02:16:23;99318.72;;;5.13;100.00
64521;BME280;50896;46.714;17.322;2024-01-06T02:18:50;99319.56;;;5.13;100.00
64521;BME280;50896;46.714;17.322;2024-01-06T02:21:17;99322.22;;;5.13;100.00
64521;BME280;50896;46.714;17.322;2024-01-06T02:23:44;99314.31;;;5.13;100.00
64521;BME280;50896;46.714;17.322;2024-01-06T02:26:11;99320.00;;;5.09;100.00
64521;BME280;50896;46.714;17.322;2024-01-06T02:28:39;99309.31;;;5.10;100.00
64521;BME280;50896;46.714;17.322;2024-01-06T02:31:06;99312.97;;;5.09;100.00
64521;BME280;50896;46.714;17.322;2024-01-06T02:33:33;99318.78;;;5.21;100.00
64521;BME280;50896;46.714;17.322;2024-01-06T02:36:00;99315.25;;;5.30;100.00
64521;BME280;50896;46.714;17.322;2024-01-06T02:38:27;99304.28;;;5.43;100.00
64521;BME280;50896;46.714;17.322;2024-01-06T02:40:54;99299.41;;;5.30;100.00
64521;BME280;50896;46.714;17.322;2024-01-06T02:43:21;99299.41;;;5.30;100.00
64521;BME280;50896;46.714;17.322;2024-01-06T02:45:49;99292.50;;;5.29;100.00
64521;BME280;50896;46.714;17.322;2024-01-06T02:48:16;99298.03;;;5.18;100.00
64521;BME280;50896;46.714;17.322;2024-01-06T02:50:44;99293.22;;;5.13;100.00
64521;BME280;50896;46.714;17.322;2024-01-06T02:53:10;99284.00;;;5.18;100.00
64521;BME280;50896;46.714;17.322;2024-01-06T02:55:39;99281.84;;;5.13;100.00
64521;BME280;50896;46.714;17.322;2024-01-06T02:58:06;99286.91;;;5.06;100.00
64521;BME280;50896;46.714;17.322;2024-01-06T03:00:33;99279.75;;;5.17;100.00
64521;BME280;50896;46.714;17.322;2024-01-06T03:03:00;99265.72;;;5.16;100.00
64521;BME280;50896;46.714;17.322;2024-01-06T03:05:27;99265.06;;;5.14;100.00
64521;BME280;50896;46.714;17.322;2024-01-06T03:07:54;99274.03;;;5.03;100.00
64521;BME280;50896;46.714;17.322;2024-01-06T03:10:21;99280.59;;;4.99;100.00
64521;BME280;50896;46.714;17.322;2024-01-06T03:12:48;99273.97;;;4.95;100.00
64521;BME280;50896;46.714;17.322;2024-01-06T03:15:15;99265.25;;;4.94;100.00
64521;BME280;50896;46.714;17.322;2024-01-06T03:17:42;99270.91;;;5.00;100.00
64521;BME280;50896;46.714;17.322;2024-01-06T03:20:09;99275.78;;;4.94;100.00
64521;BME280;50896;46.714;17.322;2024-01-06T03:22:36;99271.00;;;4.90;100.00
64521;BME280;50896;46.714;17.322;2024-01-06T03:25:05;99275.09;;;4.92;100.00
64521;BME280;50896;46.714;17.322;2024-01-06T03:27:32;99272.69;;;4.99;100.00
64521;BME280;50896;46.714;17.322;2024-01-06T03:29:59;99264.28;;;4.95;100.00
64521;BME280;50896;46.714;17.322;2024-01-06T03:32:26;99271.03;;;4.98;100.00
64521;BME280;50896;46.714;17.322;2024-01-06T03:34:55;99270.28;;;5.06;100.00
64521;BME280;50896;46.714;17.322;2024-01-06T03:37:22;99263.56;;;5.11;100.00
64521;BME280;50896;46.714;17.322;2024-01-06T03:39:49;99256.28;;;5.05;100.00
64521;BME280;50896;46.714;17.322;2024-01-06T03:42:16;99252.16;;;5.03;100.00
64521;BME280;50896;46.714;17.322;2024-01-06T03:44:43;99249.84;;;5.08;100.00
64521;BME280;50896;46.714;17.322;2024-01-06T03:47:10;99249.63;;;5.19;100.00
64521;BME280;50896;46.714;17.322;2024-01-06T03:49:37;99246.13;;;5.19;100.00
64521;BME280;50896;46.714;17.322;2024-01-06T03:52:04;99243.19;;;5.22;100.00
64521;BME280;50896;46.714;17.322;2024-01-06T03:54:31;99232.63;;;5.13;100.00
64521;BME280;50896;46.714;17.322;2024-01-06T03:56:58;99248.53;;;5.04;100.00
64521;BME280;50896;46.714;17.322;2024-01-06T03:59:25;99249.34;;;5.04;100.00
64521;BME280;50896;46.714;17.322;2024-01-06T04:01:52;99237.22;;;5.11;100.00
64521;BME280;50896;46.714;17.322;2024-01-06T04:04:19;99238.81;;;5.04;100.00
64521;BME280;50896;46.714;17.322;2024-01-06T04:06:46;99235.16;;;4.97;100.00
64521;BME280;50896;46.714;17.322;2024-01-06T04:09:13;99234.31;;;4.96;100.00
64521;BME280;50896;46.714;17.322;2024-01-06T04:11:44;99228.00;;;4.89;100.00
64521;BME280;50896;46.714;17.322;2024-01-06T04:14:10;99226.88;;;4.92;100.00
64521;BME280;50896;46.714;17.322;2024-01-06T04:16:37;99228.88;;;4.90;100.00
64521;BME280;50896;46.714;17.322;2024-01-06T04:19:04;99222.44;;;4.92;100.00
64521;BME280;50896;46.714;17.322;2024-01-06T04:21:34;99224.56;;;4.89;100.00
64521;BME280;50896;46.714;17.322;2024-01-06T04:24:01;99229.16;;;4.87;100.00
64521;BME280;50896;46.714;17.322;2024-01-06T04:26:28;99226.66;;;4.85;100.00
64521;BME280;50896;46.714;17.322;2024-01-06T04:28:54;99227.63;;;4.84;100.00
64521;BME280;50896;46.714;17.322;2024-01-06T04:31:21;99218.78;;;4.85;100.00
64521;BME280;50896;46.714;17.322;2024-01-06T04:33:48;99214.34;;;4.86;100.00
64521;BME280;50896;46.714;17.322;2024-01-06T04:36:15;99212.94;;;5.00;100.00
64521;BME280;50896;46.714;17.322;2024-01-06T04:38:43;99210.16;;;5.01;100.00
64521;BME280;50896;46.714;17.322;2024-01-06T04:41:09;99216.41;;;5.00;100.00
64521;BME280;50896;46.714;17.322;2024-01-06T04:43:36;99209.94;;;4.94;100.00
64521;BME280;50896;46.714;17.322;2024-01-06T04:46:03;99225.75;;;4.94;100.00
64521;BME280;50896;46.714;17.322;2024-01-06T04:48:30;99224.63;;;4.97;100.00
64521;BME280;50896;46.714;17.322;2024-01-06T04:50:57;99219.13;;;4.90;100.00
64521;BME280;50896;46.714;17.322;2024-01-06T04:53:24;99221.09;;;4.88;100.00
64521;BME280;50896;46.714;17.322;2024-01-06T04:55:51;99218.31;;;4.90;100.00
64521;BME280;50896;46.714;17.322;2024-01-06T04:58:17;99209.91;;;4.86;100.00
64521;BME280;50896;46.714;17.322;2024-01-06T05:00:44;99210.88;;;4.85;100.00
64521;BME280;50896;46.714;17.322;2024-01-06T05:03:11;99218.16;;;4.91;100.00
64521;BME280;50896;46.714;17.322;2024-01-06T05:05:38;99207.78;;;4.90;100.00
64521;BME280;50896;46.714;17.322;2024-01-06T05:08:05;99214.03;;;4.89;100.00
64521;BME280;50896;46.714;17.322;2024-01-06T05:10:32;99204.84;;;4.93;100.00
64521;BME280;50896;46.714;17.322;2024-01-06T05:12:59;99209.25;;;4.92;100.00
64521;BME280;50896;46.714;17.322;2024-01-06T05:15:26;99213.41;;;4.95;100.00
64521;BME280;50896;46.714;17.322;2024-01-06T05:17:53;99203.22;;;5.00;100.00
64521;BME280;50896;46.714;17.322;2024-01-06T05:20:20;99223.78;;;4.96;100.00
64521;BME280;50896;46.714;17.322;2024-01-06T05:22:47;99208.34;;;5.02;100.00
64521;BME280;50896;46.714;17.322;2024-01-06T05:25:14;99206.72;;;5.09;100.00
64521;BME280;50896;46.714;17.322;2024-01-06T05:27:41;99189.09;;;5.01;100.00
64521;BME280;50896;46.714;17.322;2024-01-06T05:30:08;99202.25;;;5.01;100.00
64521;BME280;50896;46.714;17.322;2024-01-06T05:32:37;99196.66;;;5.04;100.00
64521;BME280;50896;46.714;17.322;2024-01-06T05:35:04;99211.19;;;5.08;100.00
64521;BME280;50896;46.714;17.322;2024-01-06T05:37:31;99212.84;;;5.09;100.00
64521;BME280;50896;46.714;17.322;2024-01-06T05:39:59;99205.59;;;5.11;100.00
64521;BME280;50896;46.714;17.322;2024-01-06T05:42:28;99197.47;;;5.05;100.00
64521;BME280;50896;46.714;17.322;2024-01-06T05:44:55;99200.47;;;5.10;100.00
64521;BME280;50896;46.714;17.322;2024-01-06T05:47:22;99190.25;;;5.07;100.00
64521;BME280;50896;46.714;17.322;2024-01-06T05:49:49;99187.47;;;5.08;100.00
64521;BME280;50896;46.714;17.322;2024-01-06T05:52:16;99185.94;;;4.97;100.00
64521;BME280;50896;46.714;17.322;2024-01-06T05:54:42;99192.69;;;5.00;100.00
64521;BME280;50896;46.714;17.322;2024-01-06T05:57:09;99193.88;;;5.06;100.00
64521;BME280;50896;46.714;17.322;2024-01-06T05:59:36;99198.66;;;5.10;100.00
64521;BME280;50896;46.714;17.322;2024-01-06T06:02:03;99193.91;;;5.14;100.00
64521;BME280;50896;46.714;17.322;2024-01-06T06:04:30;99199.19;;;5.14;100.00
64521;BME280;50896;46.714;17.322;2024-01-06T06:06:57;99196.41;;;5.16;100.00
64521;BME280;50896;46.714;17.322;2024-01-06T06:09:27;99204.63;;;5.12;100.00
64521;BME280;50896;46.714;17.322;2024-01-06T06:11:55;99199.56;;;5.19;100.00
64521;BME280;50896;46.714;17.322;2024-01-06T06:14:22;99195.75;;;5.22;100.00
64521;BME280;50896;46.714;17.322;2024-01-06T06:16:53;99196.59;;;5.22;100.00
64521;BME280;50896;46.714;17.322;2024-01-06T06:19:20;99204.81;;;5.19;100.00
64521;BME280;50896;46.714;17.322;2024-01-06T06:21:47;99207.78;;;5.24;100.00
64521;BME280;50896;46.714;17.322;2024-01-06T06:24:14;99215.91;;;5.31;100.00
64521;BME280;50896;46.714;17.322;2024-01-06T06:26:41;99210.44;;;5.24;100.00
64521;BME280;50896;46.714;17.322;2024-01-06T06:29:08;99214.06;;;5.23;100.00
64521;BME280;50896;46.714;17.322;2024-01-06T06:31:35;99213.19;;;5.14;100.00
64521;BME280;50896;46.714;17.322;2024-01-06T06:34:02;99218.59;;;5.13;100.00
64521;BME280;50896;46.714;17.322;2024-01-06T06:36:34;99213.53;;;5.20;100.00
64521;BME280;50896;46.714;17.322;2024-01-06T06:39:01;99217.31;;;5.17;100.00
64521;BME280;50896;46.714;17.322;2024-01-06T06:41:28;99210.09;;;5.19;100.00
64521;BME280;50896;46.714;17.322;2024-01-06T06:43:55;99217.84;;;5.21;100.00
64521;BME280;50896;46.714;17.322;2024-01-06T06:46:22;99219.63;;;5.20;100.00
64521;BME280;50896;46.714;17.322;2024-01-06T06:48:49;99227.19;;;5.15;100.00
64521;BME280;50896;46.714;17.322;2024-01-06T06:51:17;99230.00;;;5.13;100.00
64521;BME280;50896;46.714;17.322;2024-01-06T06:53:44;99222.75;;;5.16;100.00
64521;BME280;50896;46.714;17.322;2024-01-06T06:56:13;99235.59;;;5.19;100.00
64521;BME280;50896;46.714;17.322;2024-01-06T06:58:44;99230.13;;;5.12;100.00
64521;BME280;50896;46.714;17.322;2024-01-06T07:01:11;99227.00;;;5.08;100.00
64521;BME280;50896;46.714;17.322;2024-01-06T07:03:40;99218.44;;;5.14;100.00
64521;BME280;50896;46.714;17.322;2024-01-06T07:06:06;99211.78;;;5.28;100.00
64521;BME280;50896;46.714;17.322;2024-01-06T07:08:33;99208.47;;;5.26;100.00
64521;BME280;50896;46.714;17.322;2024-01-06T07:11:00;99218.50;;;5.23;100.00
64521;BME280;50896;46.714;17.322;2024-01-06T07:13:27;99216.22;;;5.28;100.00
64521;BME280;50896;46.714;17.322;2024-01-06T07:15:54;99221.16;;;5.31;100.00
64521;BME280;50896;46.714;17.322;2024-01-06T07:18:37;99227.03;;;5.17;100.00
64521;BME280;50896;46.714;17.322;2024-01-06T07:21:05;99222.22;;;5.12;100.00
64521;BME280;50896;46.714;17.322;2024-01-06T07:23:35;99226.50;;;5.13;100.00
64521;BME280;50896;46.714;17.322;2024-01-06T07:26:02;99227.66;;;5.10;100.00
64521;BME280;50896;46.714;17.322;2024-01-06T07:28:29;99226.66;;;5.11;100.00
64521;BME280;50896;46.714;17.322;2024-01-06T07:30:56;99217.25;;;5.09;100.00
64521;BME280;50896;46.714;17.322;2024-01-06T07:33:23;99218.13;;;5.09;100.00
64521;BME280;50896;46.714;17.322;2024-01-06T07:35:51;99215.75;;;5.06;100.00
64521;BME280;50896;46.714;17.322;2024-01-06T07:38:19;99209.03;;;5.04;100.00
64521;BME280;50896;46.714;17.322;2024-01-06T07:40:47;99207.03;;;5.06;100.00
64521;BME280;50896;46.714;17.322;2024-01-06T07:43:14;99205.28;;;5.14;100.00
64521;BME280;50896;46.714;17.322;2024-01-06T07:45:42;99212.00;;;5.09;100.00
64521;BME280;50896;46.714;17.322;2024-01-06T07:48:09;99213.34;;;5.13;100.00
64521;BME280;50896;46.714;17.322;2024-01-06T07:50:36;99203.66;;;5.13;100.00
64521;BME280;50896;46.714;17.322;2024-01-06T07:53:03;99210.78;;;5.29;100.00
64521;BME280;50896;46.714;17.322;2024-01-06T07:55:30;99211.31;;;5.33;100.00
64521;BME280;50896;46.714;17.322;2024-01-06T07:57:56;99217.19;;;5.27;100.00
64521;BME280;50896;46.714;17.322;2024-01-06T08:00:23;99213.22;;;5.23;100.00
64521;BME280;50896;46.714;17.322;2024-01-06T08:02:51;99218.84;;;5.28;100.00
64521;BME280;50896;46.714;17.322;2024-01-06T08:05:18;99222.78;;;5.24;100.00
64521;BME280;50896;46.714;17.322;2024-01-06T08:07:44;99216.38;;;5.26;100.00
64521;BME280;50896;46.714;17.322;2024-01-06T08:10:11;99221.81;;;5.25;100.00
64521;BME280;50896;46.714;17.322;2024-01-06T08:12:38;99220.47;;;5.21;100.00
64521;BME280;50896;46.714;17.322;2024-01-06T08:15:05;99229.03;;;5.23;100.00
64521;BME280;50896;46.714;17.322;2024-01-06T08:17:34;99227.41;;;5.30;100.00
64521;BME280;50896;46.714;17.322;2024-01-06T08:20:01;99229.88;;;5.23;100.00
64521;BME280;50896;46.714;17.322;2024-01-06T08:22:28;99237.09;;;5.21;100.00
64521;BME280;50896;46.714;17.322;2024-01-06T08:24:55;99232.84;;;5.28;100.00
64521;BME280;50896;46.714;17.322;2024-01-06T08:27:22;99229.28;;;5.38;100.00
64521;BME280;50896;46.714;17.322;2024-01-06T08:29:50;99218.22;;;5.34;100.00
64521;BME280;50896;46.714;17.322;2024-01-06T08:32:17;99221.00;;;5.33;100.00
64521;BME280;50896;46.714;17.322;2024-01-06T08:34:44;99219.22;;;5.33;100.00
64521;BME280;50896;46.714;17.322;2024-01-06T08:37:11;99212.94;;;5.34;100.00
64521;BME280;50896;46.714;17.322;2024-01-06T08:39:38;99220.34;;;5.30;100.00
64521;BME280;50896;46.714;17.322;2024-01-06T08:42:05;99221.16;;;5.31;100.00
64521;BME280;50896;46.714;17.322;2024-01-06T08:44:31;99234.06;;;5.42;100.00
64521;BME280;50896;46.714;17.322;2024-01-06T08:46:58;99238.31;;;5.35;100.00
64521;BME280;50896;46.714;17.322;2024-01-06T08:49:25;99231.56;;;5.33;100.00
64521;BME280;50896;46.714;17.322;2024-01-06T08:51:52;99232.41;;;5.41;100.00
64521;BME280;50896;46.714;17.322;2024-01-06T08:54:19;99240.81;;;5.37;100.00
64521;BME280;50896;46.714;17.322;2024-01-06T08:56:46;99233.38;;;5.32;100.00
64521;BME280;50896;46.714;17.322;2024-01-06T08:59:12;99241.97;;;5.42;100.00
64521;BME280;50896;46.714;17.322;2024-01-06T09:01:39;99226.97;;;5.35;100.00
64521;BME280;50896;46.714;17.322;2024-01-06T09:04:10;99233.56;;;5.39;100.00
64521;BME280;50896;46.714;17.322;2024-01-06T09:06:38;99230.91;;;5.30;100.00
64521;BME280;50896;46.714;17.322;2024-01-06T09:09:05;99238.16;;;5.37;100.00
64521;BME280;50896;46.714;17.322;2024-01-06T09:11:32;99227.41;;;5.30;100.00
64521;BME280;50896;46.714;17.322;2024-01-06T09:13:59;99236.81;;;5.33;100.00
64521;BME280;50896;46.714;17.322;2024-01-06T09:16:26;99231.66;;;5.23;100.00
64521;BME280;50896;46.714;17.322;2024-01-06T09:18:53;99241.41;;;5.22;100.00
64521;BME280;50896;46.714;17.322;2024-01-06T09:21:20;99244.34;;;5.19;100.00
64521;BME280;50896;46.714;17.322;2024-01-06T09:23:47;99247.97;;;5.18;100.00
64521;BME280;50896;46.714;17.322;2024-01-06T09:26:14;99240.22;;;5.17;100.00
64521;BME280;50896;46.714;17.322;2024-01-06T09:28:43;99231.63;;;5.14;100.00
64521;BME280;50896;46.714;17.322;2024-01-06T09:31:09;99233.81;;;5.19;100.00
64521;BME280;50896;46.714;17.322;2024-01-06T09:33:36;99231.50;;;5.24;100.00
64521;BME280;50896;46.714;17.322;2024-01-06T09:36:04;99221.66;;;5.26;100.00
64521;BME280;50896;46.714;17.322;2024-01-06T09:38:31;99227.56;;;5.28;100.00
64521;BME280;50896;46.714;17.322;2024-01-06T09:40:58;99224.78;;;5.30;100.00
64521;BME280;50896;46.714;17.322;2024-01-06T09:43:24;99218.69;;;5.29;100.00
64521;BME280;50896;46.714;17.322;2024-01-06T09:46:24;99214.09;;;5.31;100.00
64521;BME280;50896;46.714;17.322;2024-01-06T09:48:54;99214.13;;;5.40;100.00
64521;BME280;50896;46.714;17.322;2024-01-06T09:51:22;99205.75;;;5.44;100.00
64521;BME280;50896;46.714;17.322;2024-01-06T09:53:57;99213.34;;;5.47;100.00
64521;BME280;50896;46.714;17.322;2024-01-06T09:56:27;99219.63;;;5.55;100.00
64521;BME280;50896;46.714;17.322;2024-01-06T09:58:55;99220.28;;;5.48;100.00
64521;BME280;50896;46.714;17.322;2024-01-06T10:01:22;99231.47;;;5.51;100.00
64521;BME280;50896;46.714;17.322;2024-01-06T10:03:49;99243.00;;;5.50;100.00
64521;BME280;50896;46.714;17.322;2024-01-06T10:06:17;99257.78;;;5.42;100.00
64521;BME280;50896;46.714;17.322;2024-01-06T10:08:49;99260.44;;;5.42;100.00
64521;BME280;50896;46.714;17.322;2024-01-06T10:11:16;99240.69;;;5.46;100.00
64521;BME280;50896;46.714;17.322;2024-01-06T10:13:43;99218.63;;;5.47;100.00
64521;BME280;50896;46.714;17.322;2024-01-06T10:16:10;99199.34;;;5.55;100.00
64521;BME280;50896;46.714;17.322;2024-01-06T10:18:38;99191.94;;;5.51;100.00
64521;BME280;50896;46.714;17.322;2024-01-06T10:21:05;99196.88;;;5.54;100.00
64521;BME280;50896;46.714;17.322;2024-01-06T10:23:33;99205.78;;;5.53;100.00
64521;BME280;50896;46.714;17.322;2024-01-06T10:26:00;99209.72;;;5.48;100.00
64521;BME280;50896;46.714;17.322;2024-01-06T10:28:31;99191.75;;;5.52;100.00
64521;BME280;50896;46.714;17.322;2024-01-06T10:30:59;99193.09;;;5.56;100.00
64521;BME280;50896;46.714;17.322;2024-01-06T10:33:26;99185.53;;;5.61;100.00
64521;BME280;50896;46.714;17.322;2024-01-06T10:35:53;99172.84;;;5.65;100.00
64521;BME280;50896;46.714;17.322;2024-01-06T10:38:22;99163.78;;;5.68;100.00
64521;BME280;50896;46.714;17.322;2024-01-06T10:40:59;99171.09;;;5.74;100.00
64521;BME280;50896;46.714;17.322;2024-01-06T10:43:27;99168.09;;;5.69;100.00
64521;BME280;50896;46.714;17.322;2024-01-06T10:45:58;99174.19;;;5.69;100.00
64521;BME280;50896;46.714;17.322;2024-01-06T10:48:28;99174.50;;;5.66;100.00
64521;BME280;50896;46.714;17.322;2024-01-06T10:50:58;99175.00;;;5.61;100.00
64521;BME280;50896;46.714;17.322;2024-01-06T10:53:26;99180.44;;;5.60;100.00
64521;BME280;50896;46.714;17.322;2024-01-06T10:55:53;99181.78;;;5.64;100.00
64521;BME280;50896;46.714;17.322;2024-01-06T10:58:22;99180.59;;;5.58;100.00
64521;BME280;50896;46.714;17.322;2024-01-06T11:00:49;99183.88;;;5.60;100.00
64521;BME280;50896;46.714;17.322;2024-01-06T11:03:17;99193.28;;;5.63;100.00
64521;BME280;50896;46.714;17.322;2024-01-06T11:05:45;99197.78;;;5.71;100.00
64521;BME280;50896;46.714;17.322;2024-01-06T11:08:12;99209.75;;;5.65;100.00
64521;BME280;50896;46.714;17.322;2024-01-06T11:10:39;99210.13;;;5.70;100.00
64521;BME280;50896;46.714;17.322;2024-01-06T11:13:21;99207.00;;;5.67;100.00
64521;BME280;50896;46.714;17.322;2024-01-06T11:15:50;99184.41;;;5.64;100.00
64521;BME280;50896;46.714;17.322;2024-01-06T11:18:37;99175.50;;;5.65;100.00
64521;BME280;50896;46.714;17.322;2024-01-06T11:21:22;99181.09;;;5.62;100.00
64521;BME280;50896;46.714;17.322;2024-01-06T11:24:24;99153.56;;;5.64;100.00
64521;BME280;50896;46.714;17.322;2024-01-06T11:26:56;99148.47;;;5.63;100.00
64521;BME280;50896;46.714;17.322;2024-01-06T11:29:23;99142.38;;;5.62;100.00
64521;BME280;50896;46.714;17.322;2024-01-06T11:32:17;99144.00;;;5.63;100.00
64521;BME280;50896;46.714;17.322;2024-01-06T11:34:48;99138.91;;;5.62;100.00
64521;BME280;50896;46.714;17.322;2024-01-06T11:37:24;99141.22;;;5.73;100.00
64521;BME280;50896;46.714;17.322;2024-01-06T11:39:51;99140.94;;;5.76;100.00
64521;BME280;50896;46.714;17.322;2024-01-06T11:42:20;99154.44;;;5.81;100.00
64521;BME280;50896;46.714;17.322;2024-01-06T11:44:50;99158.75;;;5.91;100.00
64521;BME280;50896;46.714;17.322;2024-01-06T11:47:18;99155.44;;;5.80;100.00
64521;BME280;50896;46.714;17.322;2024-01-06T11:49:54;99144.03;;;5.80;100.00
64521;BME280;50896;46.714;17.322;2024-01-06T11:52:22;99141.59;;;5.87;100.00
64521;BME280;50896;46.714;17.322;2024-01-06T11:54:49;99136.78;;;5.74;100.00
64521;BME280;50896;46.714;17.322;2024-01-06T11:57:16;99148.13;;;5.66;100.00
64521;BME280;50896;46.714;17.322;2024-01-06T11:59:43;99143.53;;;5.60;100.00
64521;BME280;50896;46.714;17.322;2024-01-06T12:02:11;99138.88;;;5.54;100.00
64521;BME280;50896;46.714;17.322;2024-01-06T12:04:40;99145.47;;;5.50;100.00
64521;BME280;50896;46.714;17.322;2024-01-06T12:07:10;99141.84;;;5.51;100.00
64521;BME280;50896;46.714;17.322;2024-01-06T12:09:39;99139.88;;;5.53;100.00
64521;BME280;50896;46.714;17.322;2024-01-06T12:12:06;99132.78;;;5.53;100.00
64521;BME280;50896;46.714;17.322;2024-01-06T12:14:33;99142.50;;;5.61;100.00
64521;BME280;50896;46.714;17.322;2024-01-06T12:17:00;99154.25;;;5.75;100.00
64521;BME280;50896;46.714;17.322;2024-01-06T12:19:31;99148.66;;;5.78;100.00
64521;BME280;50896;46.714;17.322;2024-01-06T12:22:03;99140.94;;;5.76;100.00
64521;BME280;50896;46.714;17.322;2024-01-06T12:24:31;99128.72;;;5.75;100.00
64521;BME280;50896;46.714;17.322;2024-01-06T12:26:58;99118.66;;;5.87;100.00
64521;BME280;50896;46.714;17.322;2024-01-06T12:29:26;99116.75;;;5.97;100.00
64521;BME280;50896;46.714;17.322;2024-01-06T12:31:55;99122.63;;;5.91;100.00
64521;BME280;50896;46.714;17.322;2024-01-06T12:34:22;99129.72;;;5.82;100.00
64521;BME280;50896;46.714;17.322;2024-01-06T12:36:52;99133.00;;;5.76;100.00
64521;BME280;50896;46.714;17.322;2024-01-06T12:39:19;99132.34;;;5.74;100.00
64521;BME280;50896;46.714;17.322;2024-01-06T12:41:46;99125.56;;;5.72;100.00
64521;BME280;50896;46.714;17.322;2024-01-06T12:44:13;99128.56;;;5.77;100.00
64521;BME280;50896;46.714;17.322;2024-01-06T12:46:39;99132.84;;;5.78;100.00
64521;BME280;50896;46.714;17.322;2024-01-06T12:49:06;99126.56;;;5.79;100.00
64521;BME280;50896;46.714;17.322;2024-01-06T12:51:33;99124.63;;;5.89;100.00
64521;BME280;50896;46.714;17.322;2024-01-06T12:54:01;99122.03;;;5.97;100.00